Davis Sea — WDC2883 — position and weather

sailwx.info

Track history (hours):
 
Tides and Currents Weather Stations Pressure Air Temp Water Temp Dewpoint Dewpoint Depression Visibility Wind Speed Wind Dir Waves Ship Positions

Davis Sea

Owner: Kirby Offshore Marine, LLC, Staten Island, NY. More information available from US FCC via Universal Licensing System and Coast Guard Vessel Documentation Center.

Last reported at 2015-Aug-31 00:04 UTC. Time now 2015-Aug-31 10:54 UTC.
Position N 29°46' W 095°06'.

; draft 2.6 m.

MMSI: 367129540.

Date/timePositionNaut miles runAvg speedWind from/ knotsBaromVisibWave heightAir tempDewpointWater temp
2015-Aug-31 00:04N 29°46' W 095°06'2 3.3
2015-Aug-30 23:33N 29°47' W 095°04'1 0.1
2015-Aug-30 14:12N 29°46' W 095°05'0 0.0
2015-Aug-30 12:28N 29°46' W 095°05'0 0.0
2015-Aug-30 11:25N 29°46' W 095°05'0 0.0
2015-Aug-30 10:21N 29°46' W 095°05'0 0.0
2015-Aug-30 09:21N 29°46' W 095°05'0 0.0
2015-Aug-30 08:25N 29°46' W 095°05'0 0.0
2015-Aug-30 07:09N 29°46' W 095°05'0 0.0
2015-Aug-30 05:17N 29°46' W 095°05'0 0.0
2015-Aug-30 04:32N 29°46' W 095°05'0 0.0
2015-Aug-30 03:26N 29°46' W 095°05'0 0.0
2015-Aug-30 02:33N 29°46' W 095°05'0 0.0
2015-Aug-30 01:11N 29°46' W 095°05'0 0.0
2015-Aug-29 23:11N 29°46' W 095°05'0 0.0
2015-Aug-29 21:13N 29°46' W 095°05'0 0.0
2015-Aug-29 20:08N 29°46' W 095°05'0 0.0
2015-Aug-29 19:33N 29°46' W 095°05'0 0.0
2015-Aug-29 15:29N 29°46' W 095°05'0 0.0
2015-Aug-29 12:29N 29°46' W 095°05'1 0.0
2015-Aug-28 17:33N 29°46' W 095°05'1 0.3
2015-Aug-28 15:30N 29°45' W 095°06'1 0.7
2015-Aug-28 14:26N 29°46' W 095°05'0 0.1
2015-Aug-28 07:22N 29°46' W 095°06'2 0.7
2015-Aug-28 05:14N 29°47' W 095°04'2 0.1
2015-Aug-27 08:25N 29°46' W 095°06'0 0.0
2015-Aug-26 20:10N 29°46' W 095°06'0 0.4
2015-Aug-26 19:33N 29°46' W 095°05'0 0.1
2015-Aug-26 16:22N 29°46' W 095°06'2 2.3
2015-Aug-26 15:33N 29°47' W 095°04'2 0.5
2015-Aug-26 11:33N 29°46' W 095°06'0 0.0
2015-Aug-26 09:32N 29°46' W 095°06'0 0.0
2015-Aug-26 08:32N 29°46' W 095°06'0 0.0
2015-Aug-26 07:19N 29°46' W 095°06'0 0.0
2015-Aug-26 06:33N 29°46' W 095°06'0 0.0
2015-Aug-26 05:33N 29°46' W 095°06'0 0.0
2015-Aug-26 04:29N 29°46' W 095°06'0 0.0
2015-Aug-26 03:33N 29°46' W 095°06'0 0.0
2015-Aug-26 02:21N 29°46' W 095°06'0 0.0
2015-Aug-26 01:33N 29°46' W 095°06'0 0.0
2015-Aug-26 00:22N 29°46' W 095°06'0 0.0
2015-Aug-25 20:33N 29°46' W 095°06'0 0.0
2015-Aug-25 19:28N 29°46' W 095°06'0 0.0
2015-Aug-25 18:33N 29°46' W 095°06'0 0.0
2015-Aug-25 17:30N 29°46' W 095°06'0 0.0
2015-Aug-25 16:29N 29°46' W 095°06'0 0.0
2015-Aug-25 15:06N 29°46' W 095°06'1 0.8
2015-Aug-25 14:21N 29°46' W 095°05'1 0.1
2015-Aug-25 06:25N 29°46' W 095°06'0 0.0
2015-Aug-25 05:33N 29°46' W 095°06'0 0.0
2015-Aug-23 16:10N 29°46' W 095°06'0 0.0
2015-Aug-23 15:29N 29°46' W 095°06'0 0.0
2015-Aug-23 12:14N 29°46' W 095°06'0 0.0
2015-Aug-23 11:21N 29°46' W 095°06'0 0.0
2015-Aug-23 10:27N 29°46' W 095°06'0 0.0
2015-Aug-23 04:11N 29°46' W 095°06'0 0.0
2015-Aug-22 15:08N 29°46' W 095°05'2 0.7
2015-Aug-22 12:07N 29°47' W 095°04'0 0.6
2015-Aug-22 11:32N 29°47' W 095°04'2 1.4
2015-Aug-22 10:16N 29°46' W 095°06'0 0.0
2015-Aug-22 05:29N 29°46' W 095°06'0 0.0
2015-Aug-22 03:27N 29°46' W 095°06'0 0.0
2015-Aug-22 02:22N 29°46' W 095°06'0 0.0
2015-Aug-21 20:30N 29°46' W 095°06'1 0.6
2015-Aug-21 19:32N 29°46' W 095°05'8 0.5
2015-Aug-21 03:25N 29°43' W 095°14'  
Track history (hours):
 
Tides and Currents Weather Stations Pressure Air Temp Water Temp Dewpoint Dewpoint Depression Visibility Wind Speed Wind Dir Waves Ship Positions

Davis Sea

Owner: Kirby Offshore Marine, LLC, Staten Island, NY. More information available from US FCC via Universal Licensing System and Coast Guard Vessel Documentation Center.

Last reported at 2015-Aug-31 00:04 UTC. Time now 2015-Aug-31 10:54 UTC.
Position N 29°46' W 095°06'.

; draft 2.6 m.

MMSI: 367129540.

Date/timePositionNaut miles runAvg speedWind from/ knotsBaromVisibWave heightAir tempDewpointWater temp
2015-Aug-31 00:04N 29°46' W 095°06'2 3.3
2015-Aug-30 23:33N 29°47' W 095°04'1 0.1
2015-Aug-30 14:12N 29°46' W 095°05'0 0.0
2015-Aug-30 12:28N 29°46' W 095°05'0 0.0
2015-Aug-30 11:25N 29°46' W 095°05'0 0.0
2015-Aug-30 10:21N 29°46' W 095°05'0 0.0
2015-Aug-30 09:21N 29°46' W 095°05'0 0.0
2015-Aug-30 08:25N 29°46' W 095°05'0 0.0
2015-Aug-30 07:09N 29°46' W 095°05'0 0.0
2015-Aug-30 05:17N 29°46' W 095°05'0 0.0
2015-Aug-30 04:32N 29°46' W 095°05'0 0.0
2015-Aug-30 03:26N 29°46' W 095°05'0 0.0
2015-Aug-30 02:33N 29°46' W 095°05'0 0.0
2015-Aug-30 01:11N 29°46' W 095°05'0 0.0
2015-Aug-29 23:11N 29°46' W 095°05'0 0.0
2015-Aug-29 21:13N 29°46' W 095°05'0 0.0
2015-Aug-29 20:08N 29°46' W 095°05'0 0.0
2015-Aug-29 19:33N 29°46' W 095°05'0 0.0
2015-Aug-29 15:29N 29°46' W 095°05'0 0.0
2015-Aug-29 12:29N 29°46' W 095°05'1 0.0
2015-Aug-28 17:33N 29°46' W 095°05'1 0.3
2015-Aug-28 15:30N 29°45' W 095°06'1 0.7
2015-Aug-28 14:26N 29°46' W 095°05'0 0.1
2015-Aug-28 07:22N 29°46' W 095°06'2 0.7
2015-Aug-28 05:14N 29°47' W 095°04'2 0.1
2015-Aug-27 08:25N 29°46' W 095°06'0 0.0
2015-Aug-26 20:10N 29°46' W 095°06'0 0.4
2015-Aug-26 19:33N 29°46' W 095°05'0 0.1
2015-Aug-26 16:22N 29°46' W 095°06'2 2.3
2015-Aug-26 15:33N 29°47' W 095°04'2 0.5
2015-Aug-26 11:33N 29°46' W 095°06'0 0.0
2015-Aug-26 09:32N 29°46' W 095°06'0 0.0
2015-Aug-26 08:32N 29°46' W 095°06'0 0.0
2015-Aug-26 07:19N 29°46' W 095°06'0 0.0
2015-Aug-26 06:33N 29°46' W 095°06'0 0.0
2015-Aug-26 05:33N 29°46' W 095°06'0 0.0
2015-Aug-26 04:29N 29°46' W 095°06'0 0.0
2015-Aug-26 03:33N 29°46' W 095°06'0 0.0
2015-Aug-26 02:21N 29°46' W 095°06'0 0.0
2015-Aug-26 01:33N 29°46' W 095°06'0 0.0
2015-Aug-26 00:22N 29°46' W 095°06'0 0.0
2015-Aug-25 20:33N 29°46' W 095°06'0 0.0
2015-Aug-25 19:28N 29°46' W 095°06'0 0.0
2015-Aug-25 18:33N 29°46' W 095°06'0 0.0
2015-Aug-25 17:30N 29°46' W 095°06'0 0.0
2015-Aug-25 16:29N 29°46' W 095°06'0 0.0
2015-Aug-25 15:06N 29°46' W 095°06'1 0.8
2015-Aug-25 14:21N 29°46' W 095°05'1 0.1
2015-Aug-25 06:25N 29°46' W 095°06'0 0.0
2015-Aug-25 05:33N 29°46' W 095°06'0 0.0
2015-Aug-23 16:10N 29°46' W 095°06'0 0.0
2015-Aug-23 15:29N 29°46' W 095°06'0 0.0
2015-Aug-23 12:14N 29°46' W 095°06'0 0.0
2015-Aug-23 11:21N 29°46' W 095°06'0 0.0
2015-Aug-23 10:27N 29°46' W 095°06'0 0.0
2015-Aug-23 04:11N 29°46' W 095°06'0 0.0
2015-Aug-22 15:08N 29°46' W 095°05'2 0.7
2015-Aug-22 12:07N 29°47' W 095°04'0 0.6
2015-Aug-22 11:32N 29°47' W 095°04'2 1.4
2015-Aug-22 10:16N 29°46' W 095°06'0 0.0
2015-Aug-22 05:29N 29°46' W 095°06'0 0.0
2015-Aug-22 03:27N 29°46' W 095°06'0 0.0
2015-Aug-22 02:22N 29°46' W 095°06'0 0.0
2015-Aug-21 20:30N 29°46' W 095°06'1 0.6
2015-Aug-21 19:32N 29°46' W 095°05'8 0.5
2015-Aug-21 03:25N 29°43' W 095°14'  

Dump ship's entire track history